sensor_id;sensor_type;location;lat;lon;timestamp;P1;durP1;ratioP1;P2;durP2;ratioP2
55254;SDS011;41118;44.634;11.182;2023-11-21T00:00:26;22.63;;;11.13;;
55254;SDS011;41118;44.634;11.182;2023-11-21T00:02:52;19.08;;;12.45;;
55254;SDS011;41118;44.634;11.182;2023-11-21T00:05:19;19.27;;;10.70;;
55254;SDS011;41118;44.634;11.182;2023-11-21T00:07:48;20.83;;;9.95;;
55254;SDS011;41118;44.634;11.182;2023-11-21T00:10:14;16.05;;;10.38;;
55254;SDS011;41118;44.634;11.182;2023-11-21T00:12:41;19.48;;;10.20;;
55254;SDS011;41118;44.634;11.182;2023-11-21T00:15:07;26.17;;;12.93;;
55254;SDS011;41118;44.634;11.182;2023-11-21T00:17:40;20.52;;;9.75;;
55254;SDS011;41118;44.634;11.182;2023-11-21T00:20:07;23.98;;;11.23;;
55254;SDS011;41118;44.634;11.182;2023-11-21T00:22:34;17.60;;;9.75;;
55254;SDS011;41118;44.634;11.182;2023-11-21T00:25:00;20.67;;;10.52;;
55254;SDS011;41118;44.634;11.182;2023-11-21T00:27:28;24.15;;;10.27;;
55254;SDS011;41118;44.634;11.182;2023-11-21T00:29:55;22.60;;;11.07;;
55254;SDS011;41118;44.634;11.182;2023-11-21T00:32:21;16.27;;;9.10;;
55254;SDS011;41118;44.634;11.182;2023-11-21T00:34:47;19.13;;;9.30;;
55254;SDS011;41118;44.634;11.182;2023-11-21T00:37:14;22.65;;;11.65;;
55254;SDS011;41118;44.634;11.182;2023-11-21T00:39:40;21.83;;;11.68;;
55254;SDS011;41118;44.634;11.182;2023-11-21T00:42:07;21.17;;;10.52;;
55254;SDS011;41118;44.634;11.182;2023-11-21T00:44:33;20.92;;;10.77;;
55254;SDS011;41118;44.634;11.182;2023-11-21T00:47:00;19.40;;;11.48;;
55254;SDS011;41118;44.634;11.182;2023-11-21T00:49:26;22.77;;;11.32;;
55254;SDS011;41118;44.634;11.182;2023-11-21T00:51:53;23.70;;;11.95;;
55254;SDS011;41118;44.634;11.182;2023-11-21T00:54:19;21.52;;;10.52;;
55254;SDS011;41118;44.634;11.182;2023-11-21T00:56:45;20.17;;;11.40;;
55254;SDS011;41118;44.634;11.182;2023-11-21T00:59:14;21.77;;;11.10;;
55254;SDS011;41118;44.634;11.182;2023-11-21T01:01:40;22.58;;;11.52;;
55254;SDS011;41118;44.634;11.182;2023-11-21T01:04:06;20.60;;;10.98;;
55254;SDS011;41118;44.634;11.182;2023-11-21T01:06:32;22.23;;;10.93;;
55254;SDS011;41118;44.634;11.182;2023-11-21T01:08:58;23.98;;;11.07;;
55254;SDS011;41118;44.634;11.182;2023-11-21T01:11:24;19.48;;;12.18;;
55254;SDS011;41118;44.634;11.182;2023-11-21T01:13:51;21.77;;;12.35;;
55254;SDS011;41118;44.634;11.182;2023-11-21T01:16:18;24.60;;;12.45;;
55254;SDS011;41118;44.634;11.182;2023-11-21T01:18:44;16.70;;;9.02;;
55254;SDS011;41118;44.634;11.182;2023-11-21T01:21:10;21.75;;;11.73;;
55254;SDS011;41118;44.634;11.182;2023-11-21T01:23:37;16.60;;;9.60;;
55254;SDS011;41118;44.634;11.182;2023-11-21T01:26:03;23.77;;;11.95;;
55254;SDS011;41118;44.634;11.182;2023-11-21T01:28:29;19.13;;;9.25;;
55254;SDS011;41118;44.634;11.182;2023-11-21T01:30:55;22.58;;;11.45;;
55254;SDS011;41118;44.634;11.182;2023-11-21T01:33:22;22.75;;;10.23;;
55254;SDS011;41118;44.634;11.182;2023-11-21T01:35:50;20.65;;;11.82;;
55254;SDS011;41118;44.634;11.182;2023-11-21T01:38:19;25.73;;;11.18;;
55254;SDS011;41118;44.634;11.182;2023-11-21T01:40:46;20.88;;;11.45;;
55254;SDS011;41118;44.634;11.182;2023-11-21T01:43:12;20.42;;;11.02;;
55254;SDS011;41118;44.634;11.182;2023-11-21T01:45:38;20.70;;;12.05;;
55254;SDS011;41118;44.634;11.182;2023-11-21T01:48:04;23.55;;;13.35;;
55254;SDS011;41118;44.634;11.182;2023-11-21T01:50:31;22.27;;;10.75;;
55254;SDS011;41118;44.634;11.182;2023-11-21T01:52:58;24.38;;;11.82;;
55254;SDS011;41118;44.634;11.182;2023-11-21T01:55:25;18.70;;;11.63;;
55254;SDS011;41118;44.634;11.182;2023-11-21T01:57:52;17.80;;;11.82;;
55254;SDS011;41118;44.634;11.182;2023-11-21T02:00:18;25.90;;;13.38;;
55254;SDS011;41118;44.634;11.182;2023-11-21T02:02:45;17.02;;;10.55;;
55254;SDS011;41118;44.634;11.182;2023-11-21T02:05:12;36.42;;;13.68;;
55254;SDS011;41118;44.634;11.182;2023-11-21T02:07:39;23.23;;;11.57;;
55254;SDS011;41118;44.634;11.182;2023-11-21T02:10:06;26.00;;;13.43;;
55254;SDS011;41118;44.634;11.182;2023-11-21T02:12:33;23.48;;;14.70;;
55254;SDS011;41118;44.634;11.182;2023-11-21T02:15:04;30.42;;;14.13;;
55254;SDS011;41118;44.634;11.182;2023-11-21T02:17:34;23.40;;;12.70;;
55254;SDS011;41118;44.634;11.182;2023-11-21T02:20:01;22.50;;;11.35;;
55254;SDS011;41118;44.634;11.182;2023-11-21T02:22:28;24.80;;;13.77;;
55254;SDS011;41118;44.634;11.182;2023-11-21T02:24:57;30.15;;;13.32;;
55254;SDS011;41118;44.634;11.182;2023-11-21T02:27:23;23.17;;;11.57;;
55254;SDS011;41118;44.634;11.182;2023-11-21T02:29:50;24.80;;;14.63;;
55254;SDS011;41118;44.634;11.182;2023-11-21T02:32:16;28.30;;;13.95;;
55254;SDS011;41118;44.634;11.182;2023-11-21T02:34:44;23.55;;;12.52;;
55254;SDS011;41118;44.634;11.182;2023-11-21T02:37:10;31.25;;;13.77;;
55254;SDS011;41118;44.634;11.182;2023-11-21T02:39:36;25.13;;;12.73;;
55254;SDS011;41118;44.634;11.182;2023-11-21T02:42:03;22.65;;;13.02;;
55254;SDS011;41118;44.634;11.182;2023-11-21T02:44:29;30.27;;;14.48;;
55254;SDS011;41118;44.634;11.182;2023-11-21T02:46:55;31.48;;;13.50;;
55254;SDS011;41118;44.634;11.182;2023-11-21T02:49:22;26.45;;;14.35;;
55254;SDS011;41118;44.634;11.182;2023-11-21T02:51:49;28.17;;;16.48;;
55254;SDS011;41118;44.634;11.182;2023-11-21T02:54:15;33.25;;;17.25;;
55254;SDS011;41118;44.634;11.182;2023-11-21T02:56:42;30.83;;;14.20;;
55254;SDS011;41118;44.634;11.182;2023-11-21T02:59:08;24.48;;;12.82;;
55254;SDS011;41118;44.634;11.182;2023-11-21T03:01:34;30.00;;;14.77;;
55254;SDS011;41118;44.634;11.182;2023-11-21T03:04:00;25.60;;;14.07;;
55254;SDS011;41118;44.634;11.182;2023-11-21T03:06:26;29.98;;;15.50;;
55254;SDS011;41118;44.634;11.182;2023-11-21T03:08:52;30.23;;;14.38;;
55254;SDS011;41118;44.634;11.182;2023-11-21T03:11:18;27.20;;;14.60;;
55254;SDS011;41118;44.634;11.182;2023-11-21T03:13:44;23.70;;;14.05;;
55254;SDS011;41118;44.634;11.182;2023-11-21T03:16:11;23.80;;;14.38;;
55254;SDS011;41118;44.634;11.182;2023-11-21T03:18:40;36.92;;;15.60;;
55254;SDS011;41118;44.634;11.182;2023-11-21T03:21:06;27.25;;;14.05;;
55254;SDS011;41118;44.634;11.182;2023-11-21T03:23:34;28.63;;;14.90;;
55254;SDS011;41118;44.634;11.182;2023-11-21T03:26:00;35.67;;;15.90;;
55254;SDS011;41118;44.634;11.182;2023-11-21T03:28:27;25.15;;;13.90;;
55254;SDS011;41118;44.634;11.182;2023-11-21T03:30:53;28.35;;;15.75;;
55254;SDS011;41118;44.634;11.182;2023-11-21T03:33:19;30.30;;;14.45;;
55254;SDS011;41118;44.634;11.182;2023-11-21T03:35:45;27.48;;;14.93;;
55254;SDS011;41118;44.634;11.182;2023-11-21T03:38:11;26.95;;;13.70;;
55254;SDS011;41118;44.634;11.182;2023-11-21T03:40:38;31.52;;;14.82;;
55254;SDS011;41118;44.634;11.182;2023-11-21T03:43:07;33.13;;;15.38;;
55254;SDS011;41118;44.634;11.182;2023-11-21T03:45:33;32.22;;;14.43;;
55254;SDS011;41118;44.634;11.182;2023-11-21T03:47:59;29.25;;;16.95;;
55254;SDS011;41118;44.634;11.182;2023-11-21T03:50:27;29.52;;;14.73;;
55254;SDS011;41118;44.634;11.182;2023-11-21T03:52:53;36.22;;;15.55;;
55254;SDS011;41118;44.634;11.182;2023-11-21T03:55:20;26.98;;;15.13;;
55254;SDS011;41118;44.634;11.182;2023-11-21T03:57:46;32.40;;;14.68;;
55254;SDS011;41118;44.634;11.182;2023-11-21T04:00:12;28.27;;;15.70;;
55254;SDS011;41118;44.634;11.182;2023-11-21T04:02:38;23.40;;;13.40;;
55254;SDS011;41118;44.634;11.182;2023-11-21T04:05:05;27.63;;;14.40;;
55254;SDS011;41118;44.634;11.182;2023-11-21T04:07:32;27.98;;;15.55;;
55254;SDS011;41118;44.634;11.182;2023-11-21T04:09:59;29.10;;;15.23;;
55254;SDS011;41118;44.634;11.182;2023-11-21T04:12:25;25.83;;;15.18;;
55254;SDS011;41118;44.634;11.182;2023-11-21T04:14:51;32.10;;;14.88;;
55254;SDS011;41118;44.634;11.182;2023-11-21T04:17:18;33.45;;;16.05;;
55254;SDS011;41118;44.634;11.182;2023-11-21T04:19:45;28.15;;;15.13;;
55254;SDS011;41118;44.634;11.182;2023-11-21T04:22:11;24.17;;;13.77;;
55254;SDS011;41118;44.634;11.182;2023-11-21T04:24:37;30.33;;;14.77;;
55254;SDS011;41118;44.634;11.182;2023-11-21T04:27:03;25.60;;;14.65;;
55254;SDS011;41118;44.634;11.182;2023-11-21T04:29:29;23.80;;;14.07;;
55254;SDS011;41118;44.634;11.182;2023-11-21T04:31:55;27.45;;;15.07;;
55254;SDS011;41118;44.634;11.182;2023-11-21T04:34:21;28.08;;;15.13;;
55254;SDS011;41118;44.634;11.182;2023-11-21T04:36:47;30.83;;;15.73;;
55254;SDS011;41118;44.634;11.182;2023-11-21T04:39:13;31.45;;;15.43;;
55254;SDS011;41118;44.634;11.182;2023-11-21T04:41:39;26.15;;;12.55;;
55254;SDS011;41118;44.634;11.182;2023-11-21T04:44:05;23.63;;;12.02;;
55254;SDS011;41118;44.634;11.182;2023-11-21T04:46:32;24.90;;;14.80;;
55254;SDS011;41118;44.634;11.182;2023-11-21T04:48:58;32.60;;;16.45;;
55254;SDS011;41118;44.634;11.182;2023-11-21T04:51:24;32.38;;;16.23;;
55254;SDS011;41118;44.634;11.182;2023-11-21T04:53:51;34.45;;;15.30;;
55254;SDS011;41118;44.634;11.182;2023-11-21T04:56:17;35.55;;;17.42;;
55254;SDS011;41118;44.634;11.182;2023-11-21T04:58:43;27.00;;;14.80;;
55254;SDS011;41118;44.634;11.182;2023-11-21T05:01:09;27.77;;;15.25;;
55254;SDS011;41118;44.634;11.182;2023-11-21T05:03:35;26.95;;;14.02;;
55254;SDS011;41118;44.634;11.182;2023-11-21T05:06:03;22.67;;;13.10;;
55254;SDS011;41118;44.634;11.182;2023-11-21T05:08:30;27.52;;;13.85;;
55254;SDS011;41118;44.634;11.182;2023-11-21T05:10:56;23.10;;;14.13;;
55254;SDS011;41118;44.634;11.182;2023-11-21T05:13:23;25.70;;;13.43;;
55254;SDS011;41118;44.634;11.182;2023-11-21T05:15:52;29.10;;;16.20;;
55254;SDS011;41118;44.634;11.182;2023-11-21T05:18:18;24.75;;;13.90;;
55254;SDS011;41118;44.634;11.182;2023-11-21T05:20:44;29.10;;;14.85;;
55254;SDS011;41118;44.634;11.182;2023-11-21T05:23:12;29.10;;;17.70;;
55254;SDS011;41118;44.634;11.182;2023-11-21T05:25:38;27.80;;;16.08;;
55254;SDS011;41118;44.634;11.182;2023-11-21T05:28:04;28.27;;;15.73;;
55254;SDS011;41118;44.634;11.182;2023-11-21T05:30:31;26.98;;;14.90;;
55254;SDS011;41118;44.634;11.182;2023-11-21T05:32:57;25.98;;;13.68;;
55254;SDS011;41118;44.634;11.182;2023-11-21T05:35:23;27.20;;;14.02;;
55254;SDS011;41118;44.634;11.182;2023-11-21T05:37:49;25.63;;;13.57;;
55254;SDS011;41118;44.634;11.182;2023-11-21T05:40:15;25.95;;;13.32;;
55254;SDS011;41118;44.634;11.182;2023-11-21T05:42:41;21.60;;;11.57;;
55254;SDS011;41118;44.634;11.182;2023-11-21T05:45:08;23.40;;;13.98;;
55254;SDS011;41118;44.634;11.182;2023-11-21T05:47:39;29.73;;;15.05;;
55254;SDS011;41118;44.634;11.182;2023-11-21T05:50:05;26.48;;;16.48;;
55254;SDS011;41118;44.634;11.182;2023-11-21T05:52:34;32.22;;;16.08;;
55254;SDS011;41118;44.634;11.182;2023-11-21T05:55:00;24.90;;;16.02;;
55254;SDS011;41118;44.634;11.182;2023-11-21T05:57:26;29.55;;;16.85;;
55254;SDS011;41118;44.634;11.182;2023-11-21T05:59:52;29.27;;;16.67;;
55254;SDS011;41118;44.634;11.182;2023-11-21T06:02:18;29.55;;;16.02;;
55254;SDS011;41118;44.634;11.182;2023-11-21T06:04:44;39.53;;;18.75;;
55254;SDS011;41118;44.634;11.182;2023-11-21T06:07:11;35.22;;;17.92;;
55254;SDS011;41118;44.634;11.182;2023-11-21T06:09:37;31.88;;;16.95;;
55254;SDS011;41118;44.634;11.182;2023-11-21T06:12:03;32.78;;;18.60;;
55254;SDS011;41118;44.634;11.182;2023-11-21T06:14:29;33.97;;;20.55;;
55254;SDS011;41118;44.634;11.182;2023-11-21T06:16:58;31.45;;;17.58;;
55254;SDS011;41118;44.634;11.182;2023-11-21T06:19:24;39.05;;;20.23;;
55254;SDS011;41118;44.634;11.182;2023-11-21T06:21:50;33.55;;;20.50;;
55254;SDS011;41118;44.634;11.182;2023-11-21T06:24:16;37.40;;;19.17;;
55254;SDS011;41118;44.634;11.182;2023-11-21T06:26:42;34.78;;;18.17;;
55254;SDS011;41118;44.634;11.182;2023-11-21T06:29:09;37.17;;;19.48;;
55254;SDS011;41118;44.634;11.182;2023-11-21T06:31:36;29.70;;;16.77;;
55254;SDS011;41118;44.634;11.182;2023-11-21T06:34:02;31.80;;;16.63;;
55254;SDS011;41118;44.634;11.182;2023-11-21T06:36:28;33.35;;;17.95;;
55254;SDS011;41118;44.634;11.182;2023-11-21T06:38:55;29.60;;;17.70;;
55254;SDS011;41118;44.634;11.182;2023-11-21T06:41:21;34.17;;;19.23;;
55254;SDS011;41118;44.634;11.182;2023-11-21T06:43:47;27.38;;;15.75;;
55254;SDS011;41118;44.634;11.182;2023-11-21T06:46:14;38.00;;;17.92;;
55254;SDS011;41118;44.634;11.182;2023-11-21T06:48:42;41.33;;;20.15;;
55254;SDS011;41118;44.634;11.182;2023-11-21T06:51:08;26.88;;;17.30;;
55254;SDS011;41118;44.634;11.182;2023-11-21T06:53:35;39.83;;;21.95;;
55254;SDS011;41118;44.634;11.182;2023-11-21T06:56:01;40.47;;;21.00;;
55254;SDS011;41118;44.634;11.182;2023-11-21T06:58:27;41.63;;;19.88;;
55254;SDS011;41118;44.634;11.182;2023-11-21T07:00:53;35.45;;;17.80;;
55254;SDS011;41118;44.634;11.182;2023-11-21T07:03:20;32.55;;;17.80;;
55254;SDS011;41118;44.634;11.182;2023-11-21T07:05:46;37.15;;;19.20;;
55254;SDS011;41118;44.634;11.182;2023-11-21T07:08:12;40.15;;;18.98;;
55254;SDS011;41118;44.634;11.182;2023-11-21T07:10:39;43.70;;;21.65;;
55254;SDS011;41118;44.634;11.182;2023-11-21T07:13:05;37.80;;;18.35;;
55254;SDS011;41118;44.634;11.182;2023-11-21T07:15:31;23.63;;;8.75;;
55254;SDS011;41118;44.634;11.182;2023-11-21T07:17:57;24.98;;;14.45;;
55254;SDS011;41118;44.634;11.182;2023-11-21T07:20:23;38.38;;;16.00;;
55254;SDS011;41118;44.634;11.182;2023-11-21T07:22:50;38.80;;;18.25;;
55254;SDS011;41118;44.634;11.182;2023-11-21T07:25:16;37.97;;;18.95;;
55254;SDS011;41118;44.634;11.182;2023-11-21T07:27:42;37.95;;;17.30;;
55254;SDS011;41118;44.634;11.182;2023-11-21T07:30:08;43.75;;;19.63;;
55254;SDS011;41118;44.634;11.182;2023-11-21T07:32:35;30.95;;;17.05;;
55254;SDS011;41118;44.634;11.182;2023-11-21T07:35:01;36.97;;;19.13;;
55254;SDS011;41118;44.634;11.182;2023-11-21T07:37:27;43.90;;;22.05;;
55254;SDS011;41118;44.634;11.182;2023-11-21T07:39:53;38.47;;;20.10;;
55254;SDS011;41118;44.634;11.182;2023-11-21T07:42:23;32.95;;;18.83;;
55254;SDS011;41118;44.634;11.182;2023-11-21T07:44:51;37.97;;;18.85;;
55254;SDS011;41118;44.634;11.182;2023-11-21T07:47:17;39.63;;;21.75;;
55254;SDS011;41118;44.634;11.182;2023-11-21T07:49:43;34.35;;;19.33;;
55254;SDS011;41118;44.634;11.182;2023-11-21T07:52:10;43.42;;;21.25;;
55254;SDS011;41118;44.634;11.182;2023-11-21T07:54:36;38.00;;;20.65;;
55254;SDS011;41118;44.634;11.182;2023-11-21T07:57:03;40.65;;;19.35;;
55254;SDS011;41118;44.634;11.182;2023-11-21T07:59:29;39.35;;;19.08;;
55254;SDS011;41118;44.634;11.182;2023-11-21T08:01:55;41.97;;;21.15;;
55254;SDS011;41118;44.634;11.182;2023-11-21T08:04:21;38.00;;;18.30;;
55254;SDS011;41118;44.634;11.182;2023-11-21T08:06:48;35.35;;;19.80;;
55254;SDS011;41118;44.634;11.182;2023-11-21T08:09:14;33.97;;;18.48;;
55254;SDS011;41118;44.634;11.182;2023-11-21T08:11:42;35.03;;;20.15;;
55254;SDS011;41118;44.634;11.182;2023-11-21T08:14:08;35.42;;;20.85;;
55254;SDS011;41118;44.634;11.182;2023-11-21T08:16:34;42.63;;;22.67;;
55254;SDS011;41118;44.634;11.182;2023-11-21T08:19:01;44.17;;;21.77;;
55254;SDS011;41118;44.634;11.182;2023-11-21T08:21:27;44.10;;;21.05;;
55254;SDS011;41118;44.634;11.182;2023-11-21T08:23:54;40.45;;;19.83;;
55254;SDS011;41118;44.634;11.182;2023-11-21T08:26:21;47.78;;;23.83;;
55254;SDS011;41118;44.634;11.182;2023-11-21T08:28:47;38.85;;;21.60;;
55254;SDS011;41118;44.634;11.182;2023-11-21T08:31:13;39.78;;;20.80;;
55254;SDS011;41118;44.634;11.182;2023-11-21T08:33:39;46.75;;;21.73;;
55254;SDS011;41118;44.634;11.182;2023-11-21T08:36:06;39.60;;;22.02;;
55254;SDS011;41118;44.634;11.182;2023-11-21T08:38:33;43.05;;;20.58;;
55254;SDS011;41118;44.634;11.182;2023-11-21T08:41:03;43.42;;;23.83;;
55254;SDS011;41118;44.634;11.182;2023-11-21T08:43:29;40.40;;;22.35;;
55254;SDS011;41118;44.634;11.182;2023-11-21T08:45:55;39.72;;;20.45;;
55254;SDS011;41118;44.634;11.182;2023-11-21T08:48:21;36.45;;;20.33;;
55254;SDS011;41118;44.634;11.182;2023-11-21T08:50:48;37.85;;;20.33;;
55254;SDS011;41118;44.634;11.182;2023-11-21T08:53:16;35.20;;;20.08;;
55254;SDS011;41118;44.634;11.182;2023-11-21T08:55:42;35.92;;;19.52;;
55254;SDS011;41118;44.634;11.182;2023-11-21T08:58:09;35.75;;;17.77;;
55254;SDS011;41118;44.634;11.182;2023-11-21T09:00:37;36.20;;;21.05;;
55254;SDS011;41118;44.634;11.182;2023-11-21T09:03:04;34.50;;;18.98;;
55254;SDS011;41118;44.634;11.182;2023-11-21T09:05:33;39.88;;;21.92;;
55254;SDS011;41118;44.634;11.182;2023-11-21T09:08:00;31.42;;;16.42;;
55254;SDS011;41118;44.634;11.182;2023-11-21T09:10:26;37.80;;;21.13;;
55254;SDS011;41118;44.634;11.182;2023-11-21T09:12:53;41.25;;;21.38;;
55254;SDS011;41118;44.634;11.182;2023-11-21T09:15:19;42.08;;;23.25;;
55254;SDS011;41118;44.634;11.182;2023-11-21T09:17:45;44.58;;;21.45;;
55254;SDS011;41118;44.634;11.182;2023-11-21T09:20:11;42.03;;;22.08;;
55254;SDS011;41118;44.634;11.182;2023-11-21T09:22:39;47.50;;;22.80;;
55254;SDS011;41118;44.634;11.182;2023-11-21T09:25:06;43.97;;;21.88;;
55254;SDS011;41118;44.634;11.182;2023-11-21T09:27:33;39.90;;;21.20;;
55254;SDS011;41118;44.634;11.182;2023-11-21T09:30:00;46.13;;;23.55;;
55254;SDS011;41118;44.634;11.182;2023-11-21T09:32:27;36.25;;;20.55;;
55254;SDS011;41118;44.634;11.182;2023-11-21T09:34:54;31.05;;;18.25;;
55254;SDS011;41118;44.634;11.182;2023-11-21T09:37:23;37.33;;;19.88;;
55254;SDS011;41118;44.634;11.182;2023-11-21T09:39:51;41.35;;;21.83;;
55254;SDS011;41118;44.634;11.182;2023-11-21T09:42:38;36.10;;;19.15;;
55254;SDS011;41118;44.634;11.182;2023-11-21T09:45:18;38.58;;;20.13;;
55254;SDS011;41118;44.634;11.182;2023-11-21T09:47:48;35.08;;;19.10;;
55254;SDS011;41118;44.634;11.182;2023-11-21T09:50:16;39.33;;;20.90;;
55254;SDS011;41118;44.634;11.182;2023-11-21T09:55:30;46.97;;;23.15;;
55254;SDS011;41118;44.634;11.182;2023-11-21T09:58:01;45.97;;;20.75;;
55254;SDS011;41118;44.634;11.182;2023-11-21T10:00:28;42.92;;;20.10;;
55254;SDS011;41118;44.634;11.182;2023-11-21T10:02:55;30.60;;;16.73;;
55254;SDS011;41118;44.634;11.182;2023-11-21T10:05:24;39.75;;;19.35;;
55254;SDS011;41118;44.634;11.182;2023-11-21T10:07:50;37.85;;;17.42;;
55254;SDS011;41118;44.634;11.182;2023-11-21T10:10:18;37.28;;;19.15;;
55254;SDS011;41118;44.634;11.182;2023-11-21T10:12:49;39.30;;;19.60;;
55254;SDS011;41118;44.634;11.182;2023-11-21T10:15:18;38.58;;;20.73;;
55254;SDS011;41118;44.634;11.182;2023-11-21T10:17:48;41.88;;;20.75;;
55254;SDS011;41118;44.634;11.182;2023-11-21T10:20:15;39.63;;;19.67;;
55254;SDS011;41118;44.634;11.182;2023-11-21T10:22:42;40.58;;;21.42;;
55254;SDS011;41118;44.634;11.182;2023-11-21T10:25:08;32.42;;;19.38;;
55254;SDS011;41118;44.634;11.182;2023-11-21T10:27:36;44.65;;;21.50;;
55254;SDS011;41118;44.634;11.182;2023-11-21T10:30:04;46.65;;;23.23;;
55254;SDS011;41118;44.634;11.182;2023-11-21T10:32:31;42.08;;;22.17;;
55254;SDS011;41118;44.634;11.182;2023-11-21T10:34:57;40.50;;;22.67;;
55254;SDS011;41118;44.634;11.182;2023-11-21T10:37:33;47.97;;;22.38;;
55254;SDS011;41118;44.634;11.182;2023-11-21T10:39:59;45.38;;;23.80;;
55254;SDS011;41118;44.634;11.182;2023-11-21T10:42:25;46.80;;;23.90;;
55254;SDS011;41118;44.634;11.182;2023-11-21T10:44:52;44.63;;;21.70;;
55254;SDS011;41118;44.634;11.182;2023-11-21T10:47:19;39.78;;;21.15;;
55254;SDS011;41118;44.634;11.182;2023-11-21T10:49:48;38.17;;;21.05;;
55254;SDS011;41118;44.634;11.182;2023-11-21T10:52:14;38.42;;;21.92;;
55254;SDS011;41118;44.634;11.182;2023-11-21T10:54:42;38.45;;;20.20;;
55254;SDS011;41118;44.634;11.182;2023-11-21T10:57:08;43.15;;;19.40;;
55254;SDS011;41118;44.634;11.182;2023-11-21T10:59:35;38.92;;;17.88;;
55254;SDS011;41118;44.634;11.182;2023-11-21T11:02:07;39.70;;;19.33;;
55254;SDS011;41118;44.634;11.182;2023-11-21T11:04:36;39.03;;;20.35;;
55254;SDS011;41118;44.634;11.182;2023-11-21T11:07:03;39.65;;;18.83;;
55254;SDS011;41118;44.634;11.182;2023-11-21T11:09:29;43.42;;;19.67;;
55254;SDS011;41118;44.634;11.182;2023-11-21T11:12:00;41.50;;;18.90;;
55254;SDS011;41118;44.634;11.182;2023-11-21T11:14:27;39.55;;;17.80;;
55254;SDS011;41118;44.634;11.182;2023-11-21T11:16:53;42.08;;;19.65;;
55254;SDS011;41118;44.634;11.182;2023-11-21T11:19:20;40.08;;;18.77;;
55254;SDS011;41118;44.634;11.182;2023-11-21T11:24:20;38.45;;;16.95;;
55254;SDS011;41118;44.634;11.182;2023-11-21T11:26:59;44.72;;;20.95;;
55254;SDS011;41118;44.634;11.182;2023-11-21T11:35:07;41.15;;;18.58;;
55254;SDS011;41118;44.634;11.182;2023-11-21T11:37:24;35.92;;;18.92;;
55254;SDS011;41118;44.634;11.182;2023-11-21T11:39:51;34.15;;;17.92;;
55254;SDS011;41118;44.634;11.182;2023-11-21T11:42:19;48.60;;;19.63;;
55254;SDS011;41118;44.634;11.182;2023-11-21T11:44:49;38.38;;;18.52;;
55254;SDS011;41118;44.634;11.182;2023-11-21T11:47:30;37.78;;;17.17;;
55254;SDS011;41118;44.634;11.182;2023-11-21T11:50:09;39.67;;;18.30;;
55254;SDS011;41118;44.634;11.182;2023-11-21T11:52:42;44.50;;;18.77;;
55254;SDS011;41118;44.634;11.182;2023-11-21T11:55:18;31.52;;;16.05;;
55254;SDS011;41118;44.634;11.182;2023-11-21T11:57:45;36.83;;;16.85;;
55254;SDS011;41118;44.634;11.182;2023-11-21T12:02:53;29.70;;;13.90;;
55254;SDS011;41118;44.634;11.182;2023-11-21T12:05:21;33.00;;;14.95;;
55254;SDS011;41118;44.634;11.182;2023-11-21T12:07:51;29.90;;;15.25;;
55254;SDS011;41118;44.634;11.182;2023-11-21T12:10:19;32.33;;;13.10;;
55254;SDS011;41118;44.634;11.182;2023-11-21T12:12:47;34.05;;;14.93;;
55254;SDS011;41118;44.634;11.182;2023-11-21T12:15:13;31.33;;;15.20;;
55254;SDS011;41118;44.634;11.182;2023-11-21T12:17:40;30.33;;;15.07;;
55254;SDS011;41118;44.634;11.182;2023-11-21T12:20:08;31.25;;;14.02;;
55254;SDS011;41118;44.634;11.182;2023-11-21T12:22:58;28.00;;;13.38;;
55254;SDS011;41118;44.634;11.182;2023-11-21T12:25:25;26.60;;;14.05;;
55254;SDS011;41118;44.634;11.182;2023-11-21T12:27:57;37.47;;;16.35;;
55254;SDS011;41118;44.634;11.182;2023-11-21T12:30:23;44.25;;;19.27;;
55254;SDS011;41118;44.634;11.182;2023-11-21T12:32:51;44.70;;;22.63;;
55254;SDS011;41118;44.634;11.182;2023-11-21T12:35:18;47.38;;;24.63;;
55254;SDS011;41118;44.634;11.182;2023-11-21T12:37:45;45.90;;;23.75;;
55254;SDS011;41118;44.634;11.182;2023-11-21T12:40:12;42.50;;;19.95;;
55254;SDS011;41118;44.634;11.182;2023-11-21T12:42:43;46.20;;;21.17;;
55254;SDS011;41118;44.634;11.182;2023-11-21T12:47:49;37.28;;;17.58;;
55254;SDS011;41118;44.634;11.182;2023-11-21T12:50:19;42.70;;;16.75;;
55254;SDS011;41118;44.634;11.182;2023-11-21T12:52:48;41.13;;;17.25;;
55254;SDS011;41118;44.634;11.182;2023-11-21T12:55:19;41.85;;;20.58;;
55254;SDS011;41118;44.634;11.182;2023-11-21T12:57:53;37.90;;;20.00;;
55254;SDS011;41118;44.634;11.182;2023-11-21T13:00:20;41.33;;;19.52;;
55254;SDS011;41118;44.634;11.182;2023-11-21T13:02:57;37.20;;;18.92;;
55254;SDS011;41118;44.634;11.182;2023-11-21T13:07:53;36.13;;;19.08;;
55254;SDS011;41118;44.634;11.182;2023-11-21T13:10:21;47.83;;;24.83;;
55254;SDS011;41118;44.634;11.182;2023-11-21T13:12:51;33.95;;;17.30;;
55254;SDS011;41118;44.634;11.182;2023-11-21T13:15:17;42.35;;;18.00;;
55254;SDS011;41118;44.634;11.182;2023-11-21T13:17:43;44.05;;;18.55;;
55254;SDS011;41118;44.634;11.182;2023-11-21T13:20:10;37.72;;;17.25;;
55254;SDS011;41118;44.634;11.182;2023-11-21T13:25:19;38.80;;;18.63;;
55254;SDS011;41118;44.634;11.182;2023-11-21T13:27:46;33.05;;;17.17;;
55254;SDS011;41118;44.634;11.182;2023-11-21T13:30:13;40.30;;;18.25;;
55254;SDS011;41118;44.634;11.182;2023-11-21T13:32:47;42.17;;;17.23;;
55254;SDS011;41118;44.634;11.182;2023-11-21T13:35:16;37.92;;;18.40;;
55254;SDS011;41118;44.634;11.182;2023-11-21T13:37:48;40.25;;;17.95;;
55254;SDS011;41118;44.634;11.182;2023-11-21T13:40:16;35.65;;;17.05;;
55254;SDS011;41118;44.634;11.182;2023-11-21T13:42:47;37.83;;;17.73;;
55254;SDS011;41118;44.634;11.182;2023-11-21T13:45:13;40.70;;;18.13;;
55254;SDS011;41118;44.634;11.182;2023-11-21T13:47:39;38.25;;;17.55;;
55254;SDS011;41118;44.634;11.182;2023-11-21T13:50:06;32.47;;;17.65;;
55254;SDS011;41118;44.634;11.182;2023-11-21T13:52:42;44.53;;;18.65;;
55254;SDS011;41118;44.634;11.182;2023-11-21T13:55:09;39.78;;;17.20;;
55254;SDS011;41118;44.634;11.182;2023-11-21T13:57:40;39.78;;;20.42;;
55254;SDS011;41118;44.634;11.182;2023-11-21T14:00:08;41.50;;;18.52;;
55254;SDS011;41118;44.634;11.182;2023-11-21T14:02:51;33.80;;;17.45;;
55254;SDS011;41118;44.634;11.182;2023-11-21T14:05:17;37.95;;;17.85;;
55254;SDS011;41118;44.634;11.182;2023-11-21T14:07:54;37.75;;;17.17;;
55254;SDS011;41118;44.634;11.182;2023-11-21T14:10:21;43.83;;;18.92;;
55254;SDS011;41118;44.634;11.182;2023-11-21T14:12:49;37.13;;;18.40;;
55254;SDS011;41118;44.634;11.182;2023-11-21T14:15:15;35.15;;;19.20;;
55254;SDS011;41118;44.634;11.182;2023-11-21T14:17:44;41.67;;;18.05;;
55254;SDS011;41118;44.634;11.182;2023-11-21T14:20:10;34.63;;;20.38;;
55254;SDS011;41118;44.634;11.182;2023-11-21T14:22:45;44.25;;;20.92;;
55254;SDS011;41118;44.634;11.182;2023-11-21T14:25:12;40.60;;;17.83;;
55254;SDS011;41118;44.634;11.182;2023-11-21T14:27:39;38.28;;;19.13;;
55254;SDS011;41118;44.634;11.182;2023-11-21T14:30:06;38.72;;;18.10;;